Impacts METAR Board
IDs:

KDTW - Detroit Metro/Wayne, MI, US

Updated at: 2000 UTC 16 Aug 2018
Potential Impact None Slight Moderate High
Time 16/08Z 16/09Z 16/10Z 16/11Z 16/12Z 16/13Z 16/14Z 16/15Z 16/16Z 16/17Z 16/18Z 16/19Z 16/20Z
Temp72 71 71 71 71 71 72 72 73 73 73 74 75
Dewpt67 67 67 67 67 67 68 68 68 69 69 70 70
Altim29.99 29.99 29.99 29.99 30.00 30.00 30.00 30.00 30.01 30.00 30.00 29.98 29.97
VIS7 6 6 3 4 4 2.5 3 2.5 1.5 2 3 8
CIG35 35 11 6 9 8 7 7 8 8 7 6 10
CoverOVCOVCOVCOVCOVCOVCOVCOVCOVCOVCOVCOVCOVC
FltCatVFRVFRMVFRIFRIFRIFRIFRIFRIFRIFRIFRIFRMVFR
WX--BRBR-RA BR-RA BRBRBRBR-RA-RA BR-RA BR-RA BR--
WDir1901600170160170190190190170180180180
WSpd4 5 0 5 3 5 7 6 9 6 8 8 8
WGst-- -- -- -- -- -- -- -- -- -- -- -- --
Raw hourly METARs
KDTW 160753Z 19004KT 7SM BKN035 BKN065 OVC120 22/19 A2999 RMK AO2 RAE43 SLP151 P0000 T02220194
KDTW 160853Z 16005KT 6SM BR BKN035 BKN065 OVC100 22/19 A2999 RMK AO2 SLP150 60000 T02170194 56009
KDTW 160953Z 00000KT 6SM BR BKN011 BKN020 OVC065 22/19 A2999 RMK AO2 SLP150 T02170194
KDTW 161053Z 17005KT 3SM -RA BR BKN006 OVC021 22/19 A2999 RMK AO2 TWR VIS 4 RAB14 SLP152 P0000 T02170194
KDTW 161153Z 16003KT 4SM -RA BR BKN009 OVC017 22/19 A3000 RMK AO2 SLP156 P0000 60000 T02170194 10228 20217 53005
KDTW 161253Z 17005KT 4SM BR BKN008 OVC018 22/19 A3000 RMK AO2 RAE20 SLP155 P0000 T02170194
KDTW 161353Z 19007KT 2 1/2SM BR BKN007 OVC015 22/20 A3000 RMK AO2 SLP154 T02220200
KDTW 161453Z COR 19006KT 3SM BR BKN007 OVC012 22/20 A3000 RMK AO2 SFC VIS 4 RAB41E46 SLP156 P0000 60000 T02220200 53001
KDTW 161553Z 19009KT 2 1/2SM -RA BKN008 OVC015 23/20 A3001 RMK AO2 TWR VIS 3 RAB20 SLP158 P0000 T02280200
KDTW 161653Z 17006KT 1 1/2SM -RA BR BKN008 OVC015 23/21 A3000 RMK AO2 SFC VIS 2 1/2 SLP156 P0001 T02280206
KDTW 161753Z 18008KT 2SM R03R/4000VP6000FT -RA BR BKN007 BKN015 OVC030 23/21 A3000 RMK AO2 SFC VIS 2 1/2 SLP154 P0006 60007 T02280206 10233 20217 58003
KDTW 161853Z 18008KT 3SM -RA BR BKN006 BKN012 OVC018 23/21 A2998 RMK AO2 SFC VIS 4 SLP150 P0013 T02330211
KDTW 161953Z 18008KT 8SM BKN010 BKN015 OVC025 24/21 A2997 RMK AO2 RAE02 SLP145 P0000 T02390211



Page loaded:  20:20 UTC  |   01:20 PM Pacific  |   02:20 PM Mountain  |   03:20 PM Central  |   04:20 PM Eastern

 

ADVISORIES

FORECASTS

FORECASTS

OBSERVATIONS

USER TOOLS

ABOUT US